| Station | Date | Time | Temp (°F) | RH (%) | Dew Pt (°F) | Wind Dir (°) | Wind Spd (mph) | Wind Gust (mph) | Solar Rad (W/m2) | Pressure (mb) | Daily Min Temp (°F) | Daily Max Temp (°F) | Daily Max Wind (mph) | Daily Rain (In) | Yest MinT (°F) | Yest MaxT (°F) | Yest MaxGst (mph) | Yest Precip (In) | MinBV Day (V) |
|---|---|---|---|---|---|---|---|---|---|---|---|---|---|---|---|---|---|---|---|
| MWA Office | 5/3/26 | 1515 | 69.6 15.0 | 39 25 | 43.6 13.3 | SW | 236 | 12.0 0.5 | 21.9 0.4 | 816 0 | 1,008.3 1.2 | 53.9 6.0 | 79.2 8.2 | 28.1 6.6 | 0.00 | 47.8 | 87.4 | 22.8 | 0.00 | 12.4 0.0 |
| MWA OPS | 5/3/26 | 1515 | 67.0 16.0 | 47 29 | 46.1 10.6 | SW | 226 | 18.8 4.9 | 31.4 8.8 | 844 85 | 1,007.8 1.3 | 50.2 2.4 | 75.6 8.8 | 32.2 7.7 | 0.00 | 47.8 | 84.4 | 24.6 | 0.00 | 12.8 0.0 |
| LV-PS | 5/3/26 | 1515 | 80.9 2.6 | 18 6 | 32.8 8.2 | SSW | 202 | 10.7 2.6 | 20.6 5.0 | 810 76 | 1,002.5 3.6 | 57.1 8.6 | 84.7 0.3 | 32.4 8.5 | 0.00 | 48.4 | 84.8 | 23.9 | 0.00 | 12.8 0.0 |
| JV-PS | 5/3/26 | 1515 | 81.8 3.3 | 16 6 | 31.4 8.3 | S | 185 | 10.8 0.7 | 21.3 4.8 | 829 71 | 1,002.5 3.2 | 56.3 4.7 | 83.3 2.7 | 28.9 4.4 | 0.00 | 51.6 | 86.0 | 33.3 | 0.00 | 12.9 0.0 |
| BDVWA | 5/3/26 | 1515 | 75.9 4.8 | 24 12 | 36.5 12.9 | SSW | 208 | 15.8 7.3 | 25.2 3.5 | 850 30 | 1,003.3 2.7 | 58.9 1.3 | 78.6 3.2 | 28.1 6.4 | 0.00 | 57.6 | 81.8 | 22.4 | 0.00 | 12.8 0.0 |
| Newberry Springs | 5/3/26 | 1515 | 85.0 4.8 | 19 8 | 37.6 10.6 | W | 280 | 9.5 2.5 | 18.2 4.4 | 611 139 | 1,002.6 3.8 | 61.8 6.7 | 87.4 3.8 | 21.9 2.2 | 0.00 | 55.1 | 91.4 | 24.1 | 0.00 | 12.9 0.0 |
| Pinon Hills | 5/3/26 | 1515 | 67.6 6.9 | 24 5 | 29.5 0.5 | E | 79 | 2.9 1.1 | 13.8 0.7 | 861 53 | 1,004.6 1.7 | 57.3 2.5 | 70.1 7.0 | 28.1 1.8 | 0.00 | 54.8 | 77.1 | 34.4 | 0.00 | 12.9 0.0 |
| Helendale | 5/3/26 | 1515 | 78.6 8.7 | 26 10 | 40.9 4.8 | S | 185 | 15.7 8.0 | 25.0 7.7 | 811 2 | 1,004.7 0.9 | 49.8 1.5 | 80.1 7.9 | 33.3 10.7 | 0.00 | 48.3 | 88.2 | 22.6 | 0.00 | 12.7 0.0 |
| Lenwood | 5/3/26 | 1515 | 80.3 8.1 | 19 10 | 34.7 11.3 | SSW | 200 | 27.7 18.4 | 40.8 22.1 | 857 104 | 1,003.3 2.4 | 49.1 1.8 | 83.7 5.6 | 40.8 14.5 | 0.00 | 47.4 | 90.1 | 26.3 | 0.00 | 12.8 12.5 |
| Oak Hills | 5/3/26 | 1445 | 58.4 17.7 | 67 46 | 47.6 13.5 | S | 178 | 11.8 3.5 | 30.0 11.0 | 916 91 | 1,008.6 1.2 | 48.3 3.5 | 60.8 17.1 | 30.0 7.9 | 0.00 | 51.8 | 78.2 | 24.1 | 0.00 | 12.9 0.0 |
| Pipes Wash Canyon | 5/3/26 | 1515 | 71.6 6.2 | 25 11 | 33.7 9.9 | SW | 228 | 4.5 1.4 | 14.5 3.3 | 830 18 | 1,003.4 2.2 | 56.6 1.8 | 74.9 4.3 | 23.2 9.0 | 0.00 | 54.8 | 79.2 | 32.2 | 0.00 | 12.8 0.0 |
| Max | 85.0 | 67 | 47.6 | - | 27.7 | 40.8 | 916 | 1,008.6 | 61.8 | 87.4 | 40.8 | 0.00 | 57.6 | 91.4 | 34.4 | 0.00 | 12.9 | ||
| Avg | 74.3 | 29 | 37.7 | - | 12.8 | 23.9 | 821 | 1,004.7 | - | - | - | - | - | - | - | - | - | ||
| Min | 58.4 | 16 | 29.5 | - | 2.9 | 13.8 | 611 | 1,002.5 | 48.3 | 60.8 | 21.9 | 0.00 | 47.4 | 77.1 | 22.4 | 0.00 | 12.4 |
| Station | Date | Time | Latest Rain (In) | Daily Rain (In) | Yest Precip (In) | Month Precip (In) | Season Precip (In) | Daily ETo (in) | Yest ETo (In) | 7 Day ETo (in) |
|---|---|---|---|---|---|---|---|---|---|---|
| MWA Office | 5/3/26 | 1515 | 0.00 | 0.00 | 0.00 | 0.00 | 4.30 | 0.177 | 0.27 | 1.53 |
| MWA OPS | 5/3/26 | 1515 | 0.00 | 0.00 | 0.00 | 0.00 | 9.32 | 0.173 | 0.28 | 1.56 |
| LV-PS | 5/3/26 | 1515 | 0.00 | 0.00 | 0.00 | 0.00 | 3.63 | 0.199 | 0.30 | 1.70 |
| JV-PS | 5/3/26 | 1515 | 0.00 | 0.00 | 0.00 | 0.00 | 6.38 | 0.213 | 0.30 | 1.74 |
| BDVWA | 5/3/26 | 1515 | 0.00 | 0.00 | 0.00 | 0.00 | 6.35 | 0.212 | 0.30 | 1.72 |
| Newberry Springs | 5/3/26 | 1515 | 0.00 | 0.00 | 0.00 | 0.00 | 2.70 | 0.170 | 0.30 | 1.90 |
| Pinon Hills | 5/3/26 | 1515 | 0.00 | 0.00 | 0.00 | 0.00 | 15.51 | 0.172 | 0.28 | 1.46 |
| Helendale | 5/3/26 | 1515 | 0.00 | 0.00 | 0.00 | 0.00 | 5.55 | 0.198 | 0.28 | 1.68 |
| Lenwood | 5/3/26 | 1515 | 0.00 | 0.00 | 0.00 | 0.00 | 4.24 | 0.198 | 0.31 | 1.72 |
| Oak Hills | 5/3/26 | 1445 | 0.00 | 0.00 | 0.00 | 0.00 | 14.72 | 0.083 | 0.25 | 1.42 |
| Pipes Wash Canyon | 5/3/26 | 1515 | 0.00 | 0.00 | 0.00 | 0.00 | 13.92 | 0.182 | 0.25 | 1.52 |
| Max | 0.00 | 0.00 | 0.00 | 0.00 | 15.51 | 0.213 | 0.31 | 1.90 | ||
| Avg | 0.00 | - | - | - | - | - | - | - | ||
| Min | 0.00 | 0.00 | 0.00 | 0.00 | 2.70 | 0.083 | 0.25 | 1.42 |